Latest Coastal Weather Observations for Smithton

IDT60701

Issued at 8:03 pm EDT Saturday 25 February 2017 (issued every 10 minutes, with the page automatically refreshed every 10 minutes)

About coastal observations | Map of coastal stations | Coastal observations for TAS | Marine services | Other Formats
Station Details ID: 091292 Name: SMITHTON AERODROME Lat: -40.83 Lon: 145.08 Height: 7.5 m
Data from the previous 72 hours. | See also: Recent months at Smithton
Date/Time
EDT
Temp
°C
Wind Pressure Rain since
9am
mm
Weather Cloud Vis
km
Sea
Height
m
Swell
Dir  Spd
kts
Gust
kts
hPa Trend Height
m
Period
s
Dir
25/08:00pm 15.9 NNE 4 5 1025.8 - 0.0 - - - - - - -
25/07:30pm 16.3 NNE 4 5 1025.6 - 0.0 - - - - - - -
25/07:00pm 16.6 NNE 5 7 1025.6 - 0.0 - - - - - - -
25/06:30pm 16.8 NE 7 9 1025.4 - 0.0 - - - - - - -
25/06:00pm 16.7 NE 9 12 1025.1 - 0.0 - - - - - - -
25/05:30pm 18.7 NE 11 14 1025.1 - 0.0 - - - - - - -
25/05:00pm 17.9 NNE 11 15 1025.4 - 0.0 - - - - - - -
25/04:30pm 18.3 NE 10 13 1025.5 - 0.0 - - - - - - -
25/04:00pm 17.2 ENE 10 13 1025.6 - 0.0 - - - - - - -
25/03:30pm 17.4 ENE 12 16 1025.7 - 0.0 - - - - - - -
25/03:00pm 17.6 ENE 12 15 1025.9 - 0.0 - - - - - - -
25/02:30pm 18.8 E 12 16 1026.1 - 0.0 - - - - - - -
25/02:00pm 18.5 E 13 18 1026.1 - 0.0 - - - - - - -
25/01:30pm 17.1 ENE 13 17 1026.1 - 0.0 - - - - - - -
25/01:00pm 17.5 ENE 11 14 1026.2 - 0.0 - - - - - - -
25/12:30pm 17.8 ENE 13 18 1026.2 - 0.0 - - - - - - -
25/12:00pm 17.6 ENE 13 17 1026.1 - 0.0 - - - - - - -
25/11:30am 17.1 ENE 12 17 1026.2 - 0.0 - - - - - - -
25/11:00am 17.1 E 10 13 1026.4 - 0.0 - - - - - - -
25/10:30am 15.6 S 9 12 1026.4 - 0.0 - - - - - - -
25/10:00am 15.3 S 11 14 1026.4 - 0.0 - - - - - - -
25/09:30am 14.1 S 12 15 1026.2 - 0.0 - - - - - - -
25/09:00am 12.8 S 12 15 1025.9 - 0.0 - - - - - - -
25/08:30am 12.4 S 12 17 1025.8 - 0.0 - - - - - - -
25/08:00am 11.4 S 11 15 1025.9 - 0.0 - - - - - - -
25/07:30am 10.9 S 11 14 1025.6 - 0.0 - - - - - - -
25/07:00am 11.0 SSW 11 14 1025.4 - 0.0 - - - - - - -
25/06:30am 10.8 SSW 11 15 1024.9 - 0.0 - - - - - - -
25/06:00am 10.7 SSW 11 14 1024.6 - 0.0 - - - - - - -
25/05:30am 10.6 SSW 10 13 1024.4 - 0.0 - - - - - - -
25/05:00am 10.6 SSW 10 13 1024.3 - 0.0 - - - - - - -
25/04:30am 10.7 SSW 10 13 1024.4 - 0.0 - - - - - - -
25/04:00am 11.0 SSW 12 15 1024.7 - 0.0 - - - - - - -
25/03:30am 10.9 SSW 13 17 1024.7 - 0.0 - - - - - - -
25/03:00am 10.9 SSW 12 16 1024.7 - 0.0 - - - - - - -
25/02:30am 11.0 SSW 13 17 1024.7 - 0.0 - - - - - - -
25/02:00am 10.8 SSW 12 16 1025.1 - 0.0 - - - - - - -
25/01:30am 10.8 SSW 9 11 1025.3 - 0.0 - - - - - - -
25/01:00am 11.3 S 10 12 1025.1 - 0.0 - - - - - - -
25/12:30am 11.4 SSW 11 15 1025.0 - 0.0 - - - - - - -
25/12:00am 11.4 SSW 11 15 1025.1 - 0.0 - - - - - - -
 
Date/Time
EDT
Temp
°C
Wind Pressure Rain since
9am
mm
Weather Cloud Vis
km
Sea
Height
m
Swell
Dir  Spd
kts
Gust
kts
hPa Trend Height
m
Period
s
Dir
24/11:30pm 11.1 SSW 11 14 1025.2 - 0.0 - - - - - - -
24/11:00pm 11.3 SW 10 13 1025.5 - 0.0 - - - - - - -
24/10:30pm 10.6 SSW 8 10 1025.7 - 0.0 - - - - - - -
24/10:00pm 11.3 SSW 10 12 1025.6 - 0.0 - - - - - - -
24/09:30pm 12.1 SSW 12 15 1025.5 - 0.0 - - - - - - -
24/09:00pm 12.4 SW 11 15 1025.0 - 0.0 - - - - - - -
24/08:30pm 13.0 SW 11 15 1024.6 - 0.0 - - - - - - -
24/08:00pm 13.6 SSW 12 16 1024.3 - 0.0 - - - - - - -
24/07:30pm 14.7 SSW 13 17 1024.0 - 0.0 - - - - - - -
24/07:00pm 16.0 SW 15 20 1023.7 - 0.0 - - - - - - -
24/06:30pm 17.2 SW 14 19 1023.6 - 0.0 - - - - - - -
24/06:00pm 17.8 SW 14 18 1023.3 - 0.0 - - - - - - -
24/05:30pm 16.9 SW 18 22 1023.1 - 0.0 - - - - - - -
24/05:00pm 17.4 SW 15 20 1022.8 - 0.0 - - - - - - -
24/04:30pm 17.5 SW 17 22 1022.6 - 0.0 - - - - - - -
24/04:00pm 19.5 SW 18 24 1022.5 - 0.0 - - - - - - -
24/03:30pm 18.7 SW 16 23 1022.4 - 0.0 - - - - - - -
24/03:00pm 18.1 SW 17 22 1022.9 - 0.0 - - - - - - -
24/02:30pm 18.4 SW 21 27 1023.0 - 0.0 - - - - - - -
24/02:00pm 19.4 SW 19 26 1022.9 - 0.0 - - - - - - -
24/01:30pm 18.8 SW 18 25 1022.8 - 0.0 - - - - - - -
24/01:00pm 18.7 SW 17 23 1023.0 - 0.0 - - - - - - -
24/12:30pm 18.5 WSW 17 25 1023.0 - 0.0 - - - - - - -
24/12:00pm 17.5 SW 16 23 1023.4 - 0.0 - - - - - - -
24/11:30am 17.6 WSW 17 22 1023.4 - 0.0 - - - - - - -
24/11:00am 17.6 SW 11 16 1023.4 - 0.0 - - - - - - -
24/10:30am 15.9 SW 14 19 1023.7 - 0.0 - - - - - - -
24/10:00am 15.7 WSW 9 13 1023.4 - 0.0 - - - - - - -
24/09:30am 14.8 WSW 8 10 1023.4 - 0.0 - - - - - - -
24/09:00am 14.4 WSW 7 9 1023.2 - 0.2 - - - - - - -
24/08:30am 14.0 WSW 8 10 1022.8 - 0.2 - - - - - - -
24/08:00am 13.5 W 7 8 1022.5 - 0.2 - - - - - - -
24/07:30am 12.8 W 6 7 1022.2 - 0.2 - - - - - - -
24/07:00am 12.4 WSW 6 7 1022.0 - 0.2 - - - - - - -
24/06:30am 12.2 WSW 7 7 1021.8 - 0.2 - - - - - - -
24/06:00am 12.0 WSW 6 7 1021.6 - 0.2 - - - - - - -
24/05:30am 12.1 W 7 8 1021.3 - 0.2 - - - - - - -
24/05:00am 11.8 WSW 7 8 1021.1 - 0.2 - - - - - - -
24/04:30am 11.5 WSW 8 9 1021.2 - 0.2 - - - - - - -
24/04:00am 12.0 WSW 8 9 1021.2 - 0.2 - - - - - - -
24/03:30am 11.9 W 8 10 1021.1 - 0.2 - - - - - - -
24/03:00am 10.7 W 7 8 1021.2 - 0.2 - - - - - - -
24/02:30am 11.6 W 8 9 1021.5 - 0.2 - - - - - - -
24/02:00am 9.5 WSW 6 6 1021.3 - 0.2 - - - - - - -
24/01:30am 11.4 WSW 7 8 1021.4 - 0.2 - - - - - - -
24/01:00am 12.5 WSW 8 9 1021.6 - 0.2 - - - - - - -
24/12:30am 12.2 WSW 8 9 1021.8 - 0.2 - - - - - - -
24/12:00am 12.8 WSW 8 9 1021.9 - 0.2 - - - - - - -
 
Date/Time
EDT
Temp
°C
Wind Pressure Rain since
9am
mm
Weather Cloud Vis
km
Sea
Height
m
Swell
Dir  Spd
kts
Gust
kts
hPa Trend Height
m
Period
s
Dir
23/11:30pm 13.2 WSW 8 9 1022.0 - 0.2 - - - - - - -
23/11:00pm 13.2 WSW 7 8 1021.8 - 0.2 - - - - - - -
23/10:30pm 13.4 WSW 8 11 1021.7 - 0.2 - - - - - - -
23/10:00pm 13.5 SW 10 14 1021.5 - 0.2 - - - - - - -
23/09:30pm 13.6 SW 10 14 1021.1 - 0.2 - - - - - - -
23/09:00pm 13.7 WSW 12 16 1020.6 - 0.2 - - - - - - -
23/08:30pm 13.9 SW 12 17 1020.0 - 0.2 - - - - - - -
23/08:00pm 14.4 SW 13 17 1019.5 - 0.2 - - - - - - -
23/07:30pm 14.9 WSW 14 19 1018.9 - 0.2 - - - - - - -
23/07:00pm 15.4 WSW 16 21 1018.5 - 0.2 - - - - - - -
23/06:30pm 16.8 WSW 16 21 1018.0 - 0.2 - - - - - - -
23/06:00pm 17.1 WSW 15 19 1017.5 - 0.2 - - - - - - -
23/05:30pm 17.4 WSW 15 22 1017.2 - 0.2 - - - - - - -
23/05:00pm 17.4 WSW 14 17 1016.7 - 0.2 - - - - - - -
23/04:30pm 18.1 WSW 12 17 1016.2 - 0.2 - - - - - - -
23/04:00pm 18.0 W 14 19 1016.1 - 0.2 - - - - - - -
23/03:30pm 18.9 W 16 20 1015.8 - 0.2 - - - - - - -
23/03:00pm 19.3 W 16 20 1015.8 - 0.0 - - - - - - -
23/02:30pm 20.0 W 15 19 1015.7 - 0.0 - - - - - - -
23/02:00pm 18.2 W 16 21 1015.6 - 0.0 - - - - - - -
23/01:30pm 18.6 W 14 19 1015.6 - 0.0 - - - - - - -
23/01:00pm 18.4 W 12 16 1015.4 - 0.0 - - - - - - -
23/12:30pm 18.7 WNW 14 19 1015.2 - 0.0 - - - - - - -
23/12:00pm 18.8 W 15 21 1015.0 - 0.0 - - - - - - -
23/11:30am 17.5 WSW 14 18 1014.8 - 0.0 - - - - - - -
23/11:00am 18.5 W 15 20 1014.4 - 0.0 - - - - - - -
23/10:30am 18.3 W 14 19 1014.1 - 0.0 - - - - - - -
23/10:00am 18.5 W 15 19 1013.8 - 0.0 - - - - - - -
23/09:30am 17.6 W 16 21 1013.4 - 0.0 - - - - - - -
23/09:00am 17.8 W 10 13 1013.2 - 0.2 - - - - - - -
23/08:30am 16.3 W 10 14 1012.8 - 0.2 - - - - - - -
23/08:00am 16.4 W 11 15 1012.3 - 0.0 - - - - - - -
23/07:30am 16.6 NW 10 14 1011.8 - 0.0 - - - - - - -
23/07:00am 16.3 NW 10 14 1011.3 - 0.0 - - - - - - -
23/06:30am 16.0 NW 8 13 1010.9 - 0.0 - - - - - - -
23/06:00am 15.2 NW 6 8 1010.5 - 0.0 - - - - - - -
23/05:30am 15.1 NW 7 10 1010.1 - 0.0 - - - - - - -
23/05:00am 15.9 WNW 11 17 1009.9 - 0.0 - - - - - - -
23/04:30am 15.9 WNW 9 11 1009.5 - 0.0 - - - - - - -
23/04:00am 16.4 WNW 7 9 1009.4 - 0.0 - - - - - - -
23/03:30am 16.8 NNW 6 10 1009.3 - 0.0 - - - - - - -
23/03:00am 16.7 NW 3 5 1009.2 - 0.0 - - - - - - -
23/02:30am 17.0 N 6 7 1009.4 - 0.0 - - - - - - -
23/02:00am 16.2 NNE 7 8 1009.3 - 0.0 - - - - - - -
23/01:30am 16.6 NE 6 8 1009.2 - 0.0 - - - - - - -
23/01:00am 17.7 NE 6 11 1009.4 - 0.0 - - - - - - -
23/12:30am 17.9 E 13 17 1009.0 - 0.0 - - - - - - -
23/12:00am 18.0 ENE 11 16 1009.5 - 0.0 - - - - - - -
 
Date/Time
EDT
Temp
°C
Wind Pressure Rain since
9am
mm
Weather Cloud Vis
km
Sea
Height
m
Swell
Dir  Spd
kts
Gust
kts
hPa Trend Height
m
Period
s
Dir
22/11:30pm 18.0 NE 12 16 1010.1 - 0.0 - - - - - - -
22/11:00pm 18.5 N 13 20 1010.5 - 0.0 - - - - - - -
22/10:54pm 18.5 NE 11 24 1009.4 - 0.0 - - - - - - -
22/10:42pm 18.5 E 20 30 1008.3 - 0.0 - - - - - - -
22/10:30pm 18.5 E 20 26 1008.1 - 0.0 - - - - - - -
22/10:00pm 18.2 E 20 31 1007.6 - 0.0 - - - - - - -
22/09:31pm 18.1 E 20 30 1008.0 - 0.0 - - - - - - -
22/09:30pm 18.2 E 21 30 1008.0 - 0.0 - - - - - - -
22/09:25pm 18.1 E 20 30 1008.0 - 0.0 - - - - - - -
22/09:00pm 18.0 E 19 28 1008.1 - 0.0 - - - - - - -
22/08:34pm 17.7 E 17 28 1008.3 - 0.0 - - - - - - -
22/08:30pm 17.5 E 17 24 1008.4 - 0.0 - - - - - - -

Other Formats:

Comma delimited format used in spreadsheet applications
http://www.bom.gov.au/fwo/IDT60701/IDT60701.94953.axf

JavaScript Object Notation format (JSON) in row-major order
http://www.bom.gov.au/fwo/IDT60701/IDT60701.94953.json